createdAt,value
2022-07-25T00:02:16.355Z,100260.81
2022-07-25T00:07:19.820Z,100265.63
2022-07-25T00:12:23.153Z,100261.47
2022-07-25T00:17:26.053Z,100256.75
2022-07-25T00:22:28.987Z,100263.47
2022-07-25T00:27:31.949Z,100263.88
2022-07-25T00:32:34.853Z,100259.16
2022-07-25T00:37:37.735Z,100257.16
2022-07-25T00:42:40.678Z,100253.78
2022-07-25T00:47:43.517Z,100244.63
2022-07-25T00:52:46.669Z,100248.38
2022-07-25T00:57:50.410Z,100259.16
2022-07-25T01:02:53.607Z,100248.81
2022-07-25T01:07:57.635Z,100253.25
2022-07-25T01:13:00.511Z,100244.06
2022-07-25T01:18:03.702Z,100248.50
2022-07-25T01:23:06.612Z,100249.84
2022-07-25T01:28:09.683Z,100247.22
2022-07-25T01:33:18.346Z,100238.72
2022-07-25T01:38:21.175Z,100237.09
2022-07-25T01:43:24.242Z,100235.44
2022-07-25T01:48:27.296Z,100235.28
2022-07-25T01:53:31.453Z,100226.38
2022-07-25T01:58:35.021Z,100231.34
2022-07-25T02:03:37.860Z,100223.19
2022-07-25T02:08:40.690Z,100228.13
2022-07-25T02:13:43.575Z,100216.97
2022-07-25T02:18:46.410Z,100222.34
2022-07-25T02:23:50.874Z,100233.34
2022-07-25T02:28:53.892Z,100241.72
2022-07-25T02:33:56.688Z,100246.97
2022-07-25T02:38:59.838Z,100240.44
2022-07-25T02:44:02.877Z,100248.69
2022-07-25T02:49:05.851Z,100251.91
2022-07-25T02:54:08.716Z,100245.97
2022-07-25T02:59:12.316Z,100254.34
2022-07-25T03:04:16.160Z,100255.44
2022-07-25T03:09:20.023Z,100257.34
2022-07-25T03:14:22.869Z,100249.34
2022-07-25T03:19:25.796Z,100262.22
2022-07-25T03:24:28.894Z,100253.97
2022-07-25T03:29:31.991Z,100260.75
2022-07-25T03:34:36.671Z,100267.19
2022-07-25T03:39:39.631Z,100266.00
2022-07-25T03:44:43.106Z,100263.91
2022-07-25T03:49:45.917Z,100268.00
2022-07-25T03:54:48.736Z,100267.41
2022-07-25T03:59:51.833Z,100259.13
2022-07-25T04:04:54.648Z,100262.22
2022-07-25T04:09:57.455Z,100258.69
2022-07-25T04:15:00.402Z,100270.38
2022-07-25T04:20:05.572Z,100265.94
2022-07-25T04:25:10.204Z,100271.19
2022-07-25T04:30:23.953Z,100268.97
2022-07-25T04:35:27.784Z,100274.38
2022-07-25T04:40:30.787Z,100275.22
2022-07-25T04:45:34.924Z,100273.34
2022-07-25T04:50:38.057Z,100272.88
2022-07-25T04:55:40.862Z,100266.53
2022-07-25T05:00:45.052Z,100277.44
2022-07-25T05:05:47.955Z,100268.19
2022-07-25T05:10:50.845Z,100267.16
2022-07-25T05:15:56.733Z,100261.16
2022-07-25T05:20:59.636Z,100243.81
2022-07-25T05:26:02.380Z,100258.13
2022-07-25T05:31:05.630Z,100249.94
2022-07-25T05:36:09.268Z,100250.69
2022-07-25T05:41:12.170Z,100242.97
2022-07-25T05:46:15.988Z,100235.28
2022-07-25T05:51:19.005Z,100237.00
2022-07-25T05:56:21.986Z,100246.06
2022-07-25T06:01:25.036Z,100242.81
2022-07-25T06:06:28.002Z,100247.47
2022-07-25T06:11:31.729Z,100240.97
2022-07-25T06:16:35.012Z,100234.50
2022-07-25T06:21:37.921Z,100230.34
2022-07-25T06:26:40.863Z,100242.56
2022-07-25T06:31:47.069Z,100234.63
2022-07-25T06:36:50.283Z,100227.72
2022-07-25T06:41:53.130Z,100222.63
2022-07-25T06:46:56.054Z,100217.28
2022-07-25T06:51:59.067Z,100221.44
2022-07-25T06:57:02.169Z,100210.69
2022-07-25T07:02:05.731Z,100210.25
2022-07-25T07:07:08.846Z,100203.78
2022-07-25T07:12:11.956Z,100201.66
2022-07-25T07:17:15.421Z,100202.50
2022-07-25T07:22:18.550Z,100212.34
2022-07-25T07:27:23.655Z,100199.28
2022-07-25T07:32:26.436Z,100193.88
2022-07-25T07:37:35.058Z,100190.63
2022-07-25T07:42:42.793Z,100187.38
2022-07-25T07:47:48.918Z,100191.72
2022-07-25T07:52:53.150Z,100181.66
2022-07-25T07:57:56.515Z,100183.88
2022-07-25T08:03:00.491Z,100182.22
2022-07-25T08:08:04.917Z,100173.44
2022-07-25T08:13:18.988Z,100170.13
2022-07-25T08:18:22.258Z,100162.47
2022-07-25T08:23:28.576Z,100156.13
2022-07-25T08:28:32.091Z,100153.50
2022-07-25T08:33:34.979Z,100147.47
2022-07-25T08:38:37.911Z,100140.56
2022-07-25T08:43:41.806Z,100139.06
2022-07-25T08:48:45.611Z,100137.94
2022-07-25T08:53:50.362Z,100132.13
2022-07-25T08:58:56.420Z,100123.53
2022-07-25T09:04:00.070Z,100115.22
2022-07-25T09:09:08.367Z,100109.66
2022-07-25T09:14:15.275Z,100108.91
2022-07-25T09:19:21.354Z,100101.66
2022-07-25T09:24:24.318Z,100091.88
2022-07-25T09:29:33.500Z,100092.84
2022-07-25T09:34:43.501Z,100088.41
2022-07-25T09:39:51.684Z,100086.63
2022-07-25T09:45:14.958Z,100065.44
2022-07-25T09:50:19.127Z,100064.38
2022-07-25T09:55:22.961Z,100064.19
2022-07-25T10:00:28.952Z,100050.72
2022-07-25T10:05:56.851Z,100050.66
2022-07-25T10:10:59.844Z,100037.47
2022-07-25T10:16:03.254Z,100034.41
2022-07-25T10:21:25.670Z,100023.66
2022-07-25T10:26:31.384Z,100024.06
2022-07-25T10:31:39.737Z,100017.34
2022-07-25T10:36:54.428Z,100010.25
2022-07-25T10:42:02.471Z,100007.50
2022-07-25T10:47:06.674Z,99994.50
2022-07-25T10:52:20.324Z,99987.84
2022-07-25T10:57:27.160Z,99970.47
2022-07-25T11:02:35.829Z,99975.00
2022-07-25T11:08:11.130Z,99965.63
2022-07-25T11:13:15.769Z,99951.31
2022-07-25T11:18:18.751Z,99957.53
2022-07-25T11:23:24.782Z,99936.97
2022-07-25T11:28:42.435Z,99934.66
2022-07-25T11:33:49.307Z,99923.47
2022-07-25T11:38:52.226Z,99915.50
2022-07-25T11:43:57.373Z,99903.19
2022-07-25T11:49:06.316Z,99894.97
2022-07-25T11:54:10.966Z,99888.47
2022-07-25T11:59:14.487Z,99890.09
2022-07-25T12:04:21.040Z,99881.47
2022-07-25T12:09:23.968Z,99877.16
2022-07-25T12:14:26.770Z,99869.59
2022-07-25T12:19:29.695Z,99851.34
2022-07-25T12:24:32.655Z,99851.44
2022-07-25T12:29:35.613Z,99840.78
2022-07-25T12:34:38.598Z,99837.28
2022-07-25T12:39:41.886Z,99828.97
2022-07-25T12:44:44.654Z,99827.06
2022-07-25T12:49:47.502Z,99821.59
2022-07-25T12:54:50.561Z,99806.63
2022-07-25T12:59:53.511Z,99797.41
2022-07-25T13:04:56.468Z,99787.25
2022-07-25T13:10:00.851Z,99783.34
2022-07-25T13:15:05.252Z,99778.97
2022-07-25T13:20:10.128Z,99770.66
2022-07-25T13:25:13.015Z,99769.63
2022-07-25T13:30:16.263Z,99766.03
2022-07-25T13:35:20.751Z,99750.59
2022-07-25T13:40:24.224Z,99743.25
2022-07-25T13:45:27.232Z,99743.00
2022-07-25T13:50:30.533Z,99737.72
2022-07-25T13:55:33.497Z,99730.03
2022-07-25T14:00:36.414Z,99734.50
2022-07-25T14:05:39.799Z,99709.50
2022-07-25T14:10:42.691Z,99700.38
2022-07-25T14:15:45.515Z,99693.75
2022-07-25T14:20:49.703Z,99699.38
2022-07-25T14:25:52.654Z,99691.19
2022-07-25T14:30:55.615Z,99677.63
2022-07-25T14:35:59.499Z,99675.47
2022-07-25T14:41:02.583Z,99665.91
2022-07-25T14:46:05.932Z,99660.50
2022-07-25T14:51:08.812Z,99661.19
2022-07-25T14:56:12.797Z,99651.53
2022-07-25T15:01:18.863Z,99640.03
2022-07-25T15:06:27.232Z,99630.66
2022-07-25T15:11:32.554Z,99634.06
2022-07-25T15:16:35.573Z,99616.38
2022-07-25T15:21:39.014Z,99616.84
2022-07-25T15:26:42.234Z,99610.34
2022-07-25T15:31:45.131Z,99604.81
2022-07-25T15:36:48.183Z,99599.03
2022-07-25T15:41:51.079Z,99594.75
2022-07-25T15:46:53.973Z,99599.41
2022-07-25T15:51:57.255Z,99600.75
2022-07-25T15:57:00.456Z,99583.50
2022-07-25T16:02:08.466Z,99591.47
2022-07-25T16:07:11.414Z,99583.44
2022-07-25T16:12:14.445Z,99586.03
2022-07-25T16:17:17.386Z,99589.69
2022-07-25T16:22:20.831Z,99594.47
2022-07-25T16:27:23.717Z,99585.19
2022-07-25T16:32:27.963Z,99585.22
2022-07-25T16:37:30.763Z,99572.34
2022-07-25T16:42:33.696Z,99581.97
2022-07-25T16:47:37.145Z,99575.16
2022-07-25T16:52:40.137Z,99572.19
2022-07-25T16:57:43.186Z,99575.91
2022-07-25T17:02:46.794Z,99575.97
2022-07-25T17:07:55.731Z,99574.31
2022-07-25T17:13:02.418Z,99581.25
2022-07-25T17:18:05.470Z,99574.28
2022-07-25T17:23:08.510Z,99571.03
2022-07-25T17:28:11.391Z,99574.59
2022-07-25T17:33:14.621Z,99570.25
2022-07-25T17:38:20.051Z,99573.97
2022-07-25T17:43:25.823Z,99570.44
2022-07-25T17:48:28.819Z,99572.91
2022-07-25T17:53:32.323Z,99576.50
2022-07-25T17:58:35.481Z,99576.94
2022-07-25T18:03:38.608Z,99572.53
2022-07-25T18:08:41.857Z,99566.00
2022-07-25T18:13:44.677Z,99572.13
2022-07-25T18:18:47.576Z,99556.34
2022-07-25T18:23:51.081Z,99560.94
2022-07-25T18:28:54.349Z,99562.47
2022-07-25T18:33:57.295Z,99562.53
2022-07-25T18:39:00.471Z,99551.63
2022-07-25T18:44:04.010Z,99546.97
2022-07-25T18:49:07.159Z,99559.19
2022-07-25T18:54:10.674Z,99562.44
2022-07-25T18:59:13.789Z,99570.16
2022-07-25T19:04:18.961Z,99575.75
2022-07-25T19:09:22.194Z,99576.41
2022-07-25T19:14:27.384Z,99570.13
2022-07-25T19:19:30.798Z,99571.44
2022-07-25T19:24:33.739Z,99577.41
2022-07-25T19:29:38.187Z,99580.16
2022-07-25T19:34:41.020Z,99580.91
2022-07-25T19:39:43.957Z,99577.22
2022-07-25T19:44:47.148Z,99582.25
2022-07-25T19:49:50.242Z,99581.28
2022-07-25T19:54:54.559Z,99586.53
2022-07-25T19:59:57.449Z,99581.75
2022-07-25T20:05:00.432Z,99592.41
2022-07-25T20:10:04.571Z,99585.41
2022-07-25T20:15:07.806Z,99585.16
2022-07-25T20:20:12.069Z,99585.47
2022-07-25T20:25:15.153Z,99587.91
2022-07-25T20:30:18.851Z,99580.34
2022-07-25T20:35:21.741Z,99588.78
2022-07-25T20:40:24.669Z,99586.63
2022-07-25T20:45:28.403Z,99585.78
2022-07-25T20:50:31.442Z,99578.47
2022-07-25T20:55:34.638Z,99582.28
2022-07-25T21:00:37.904Z,99581.16
2022-07-25T21:05:43.263Z,99575.22
2022-07-25T21:10:46.183Z,99570.59
2022-07-25T21:15:50.701Z,99571.13
2022-07-25T21:20:55.082Z,99567.53
2022-07-25T21:25:58.302Z,99568.59
2022-07-25T21:31:01.273Z,99563.44
2022-07-25T21:36:04.893Z,99572.09
2022-07-25T21:41:07.755Z,99564.50
2022-07-25T21:46:10.852Z,99564.72
2022-07-25T21:51:18.885Z,99569.88
2022-07-25T21:56:25.672Z,99568.50
2022-07-25T22:01:28.807Z,99575.81
2022-07-25T22:06:31.931Z,99576.88
2022-07-25T22:11:43.119Z,99572.50
2022-07-25T22:16:50.401Z,99574.56
2022-07-25T22:21:53.972Z,99572.66
2022-07-25T22:26:56.916Z,99565.00
2022-07-25T22:32:00.878Z,99565.81
2022-07-25T22:37:03.872Z,99566.06
2022-07-25T22:42:07.001Z,99569.22
2022-07-25T22:47:09.994Z,99577.59
2022-07-25T22:52:13.684Z,99571.84
2022-07-25T22:57:16.540Z,99570.50
2022-07-25T23:02:19.512Z,99589.19
2022-07-25T23:07:22.378Z,99585.13
2022-07-25T23:12:25.348Z,99595.16
2022-07-25T23:17:29.139Z,99592.47
2022-07-25T23:22:31.949Z,99602.16
2022-07-25T23:27:35.191Z,99619.50
2022-07-25T23:32:38.289Z,99620.69
2022-07-25T23:37:41.193Z,99623.22
2022-07-25T23:42:44.163Z,99620.94
2022-07-25T23:47:47.332Z,99621.41
2022-07-25T23:52:52.346Z,99613.78
2022-07-25T23:57:55.120Z,99608.66
